createdAt,value
2018-11-21T00:00:01.464Z,5.90
2018-11-21T00:03:04.679Z,8.10
2018-11-21T00:06:09.127Z,8.57
2018-11-21T00:09:12.272Z,6.73
2018-11-21T00:12:15.499Z,6.73
2018-11-21T00:15:19.006Z,6.57
2018-11-21T00:18:22.761Z,6.57
2018-11-21T00:21:26.284Z,5.97
2018-11-21T00:24:29.918Z,5.80
2018-11-21T00:27:33.416Z,6.13
2018-11-21T00:30:36.554Z,5.90
2018-11-21T00:33:40.207Z,11.90
2018-11-21T00:36:43.727Z,5.23
2018-11-21T00:39:47.372Z,10.43
2018-11-21T00:42:51.151Z,5.03
2018-11-21T00:45:54.288Z,7.93
2018-11-21T00:48:57.691Z,18.43
2018-11-21T00:52:00.855Z,7.37
2018-11-21T00:55:04.266Z,6.03
2018-11-21T00:58:07.939Z,5.73
2018-11-21T01:01:11.549Z,5.57
2018-11-21T01:04:14.764Z,7.03
2018-11-21T01:07:17.859Z,6.00
2018-11-21T01:10:21.726Z,5.50
2018-11-21T01:13:25.374Z,5.77
2018-11-21T01:16:28.675Z,5.30
2018-11-21T01:19:32.082Z,4.70
2018-11-21T01:22:35.653Z,6.07
2018-11-21T01:25:38.758Z,10.47
2018-11-21T01:28:42.175Z,5.13
2018-11-21T01:31:45.515Z,7.30
2018-11-21T01:34:48.576Z,5.47
2018-11-21T01:37:51.995Z,5.20
2018-11-21T01:40:55.787Z,5.93
2018-11-21T01:43:58.919Z,7.83
2018-11-21T01:47:01.993Z,5.73
2018-11-21T01:50:06.057Z,6.17
2018-11-21T01:53:09.742Z,5.40
2018-11-21T01:56:13.112Z,5.27
2018-11-21T01:59:16.769Z,5.80
2018-11-21T02:02:19.942Z,5.67
2018-11-21T02:05:23.287Z,5.53
2018-11-21T02:08:26.801Z,5.93
2018-11-21T02:11:29.877Z,6.03
2018-11-21T02:14:32.977Z,6.27
2018-11-21T02:17:36.368Z,5.20
2018-11-21T02:20:40.038Z,4.50
2018-11-21T02:23:43.145Z,6.03
2018-11-21T02:26:46.241Z,4.93
2018-11-21T02:29:49.404Z,6.53
2018-11-21T02:32:52.817Z,5.97
2018-11-21T02:35:56.220Z,5.50
2018-11-21T02:38:59.988Z,6.53
2018-11-21T02:42:03.354Z,5.63
2018-11-21T02:45:06.923Z,5.37
2018-11-21T02:48:10.490Z,8.23
2018-11-21T02:51:13.810Z,7.37
2018-11-21T02:54:16.936Z,5.53
2018-11-21T02:57:28.687Z,5.60
2018-11-21T03:00:31.761Z,5.27
2018-11-21T03:03:34.865Z,6.10
2018-11-21T03:06:38.206Z,8.23
2018-11-21T03:09:41.253Z,7.37
2018-11-21T03:12:44.623Z,11.13
2018-11-21T03:15:48.066Z,7.60
2018-11-21T03:18:51.415Z,6.97
2018-11-21T03:21:54.572Z,5.80
2018-11-21T03:24:57.627Z,6.80
2018-11-21T03:28:04.688Z,7.17
2018-11-21T03:31:08.224Z,7.93
2018-11-21T03:34:11.595Z,6.90
2018-11-21T03:37:15.294Z,6.15
2018-11-21T03:40:19.464Z,7.33
2018-11-21T03:43:22.826Z,8.67
2018-11-21T03:46:25.914Z,8.33
2018-11-21T03:49:29.094Z,7.00
2018-11-21T03:52:32.406Z,8.40
2018-11-21T03:55:35.838Z,7.43
2018-11-21T03:58:39.619Z,7.28
2018-11-21T04:01:42.988Z,7.83
2018-11-21T04:04:46.343Z,10.10
2018-11-21T04:07:49.764Z,6.20
2018-11-21T04:10:53.104Z,6.63
2018-11-21T04:13:56.505Z,8.57
2018-11-21T04:16:59.846Z,7.37
2018-11-21T04:20:02.888Z,11.40
2018-11-21T04:23:06.040Z,8.07
2018-11-21T04:26:09.100Z,9.67
2018-11-21T04:29:12.154Z,6.73
2018-11-21T04:32:16.063Z,7.20
2018-11-21T04:35:19.523Z,6.03
2018-11-21T04:38:22.605Z,5.93
2018-11-21T04:41:26.157Z,8.10
2018-11-21T04:44:29.631Z,7.17
2018-11-21T04:47:33.379Z,8.47
2018-11-21T04:50:36.491Z,7.87
2018-11-21T04:53:40.129Z,10.00
2018-11-21T04:56:44.246Z,6.17
2018-11-21T04:59:47.305Z,12.23
2018-11-21T05:02:50.588Z,11.13
2018-11-21T05:05:53.669Z,10.50
2018-11-21T05:08:57.422Z,12.47
2018-11-21T05:12:00.766Z,19.30
2018-11-21T05:15:03.940Z,12.77
2018-11-21T05:18:07.291Z,55.73
2018-11-21T05:21:10.407Z,29.07
2018-11-21T05:24:13.634Z,22.20
2018-11-21T05:27:16.689Z,27.87
2018-11-21T05:30:19.768Z,26.63
2018-11-21T05:33:24.163Z,15.88
2018-11-21T05:36:27.764Z,13.93
2018-11-21T05:39:30.825Z,13.93
2018-11-21T05:42:34.190Z,22.33
2018-11-21T05:45:37.859Z,15.10
2018-11-21T05:48:41.817Z,12.10
2018-11-21T05:51:44.932Z,13.47
2018-11-21T05:54:48.561Z,12.20
2018-11-21T05:57:51.932Z,11.93
2018-11-21T06:00:55.107Z,14.00
2018-11-21T06:03:59.070Z,11.33
2018-11-21T06:07:02.146Z,11.77
2018-11-21T06:10:10.758Z,14.87
2018-11-21T06:13:14.039Z,12.27
2018-11-21T06:16:17.420Z,11.87
2018-11-21T06:19:20.632Z,10.70
2018-11-21T06:22:24.864Z,9.57
2018-11-21T06:25:28.656Z,11.17
2018-11-21T06:28:31.711Z,18.90
2018-11-21T06:31:35.167Z,16.27
2018-11-21T06:34:38.876Z,16.53
2018-11-21T06:37:42.003Z,14.03
2018-11-21T06:40:45.339Z,11.50
2018-11-21T06:43:49.167Z,14.70
2018-11-21T06:46:52.536Z,9.90
2018-11-21T06:49:56.222Z,11.20
2018-11-21T06:52:59.499Z,12.07
2018-11-21T06:56:02.546Z,12.20
2018-11-21T06:59:06.126Z,14.77
2018-11-21T07:02:09.174Z,10.60
2018-11-21T07:05:12.516Z,11.40
2018-11-21T07:08:15.837Z,8.53
2018-11-21T07:11:18.882Z,10.67
2018-11-21T07:14:22.243Z,9.60
2018-11-21T07:17:25.744Z,14.27
2018-11-21T07:20:28.851Z,10.18
2018-11-21T07:23:31.907Z,10.00
2018-11-21T07:26:34.951Z,12.77
2018-11-21T07:29:38.302Z,9.13
2018-11-21T07:32:41.674Z,11.20
2018-11-21T07:35:45.331Z,13.87
2018-11-21T07:38:49.338Z,12.47
2018-11-21T07:41:52.948Z,11.93
2018-11-21T07:44:57.346Z,8.87
2018-11-21T07:48:00.642Z,11.67
2018-11-21T07:51:04.366Z,10.93
2018-11-21T07:54:07.465Z,10.87
2018-11-21T07:57:43.515Z,9.80
2018-11-21T08:01:14.509Z,9.17
2018-11-21T08:04:28.673Z,9.37
2018-11-21T08:07:43.301Z,10.97
2018-11-21T08:11:00.607Z,8.50
2018-11-21T08:14:22.135Z,9.03
2018-11-21T08:17:37.609Z,8.57
2018-11-21T08:20:58.571Z,9.13
2018-11-21T08:24:25.551Z,10.00
2018-11-21T08:27:53.724Z,9.93
2018-11-21T08:30:56.754Z,8.73
2018-11-21T08:34:00.139Z,8.43
2018-11-21T08:37:03.439Z,8.50
2018-11-21T08:40:07.126Z,8.40
2018-11-21T08:43:10.237Z,10.73
2018-11-21T08:46:13.627Z,10.20
2018-11-21T08:49:16.645Z,9.07
2018-11-21T08:52:19.723Z,9.63
2018-11-21T08:55:23.294Z,8.83
2018-11-21T08:58:26.954Z,8.93
2018-11-21T09:01:30.065Z,9.23
2018-11-21T09:04:33.729Z,9.83
2018-11-21T09:07:37.329Z,9.10
2018-11-21T09:10:40.810Z,8.77
2018-11-21T09:13:44.114Z,9.57
2018-11-21T09:16:47.484Z,7.83
2018-11-21T09:19:51.384Z,9.23
2018-11-21T09:22:54.765Z,7.53
2018-11-21T09:25:57.810Z,7.87
2018-11-21T09:29:01.234Z,8.93
2018-11-21T09:32:04.315Z,9.73
2018-11-21T09:35:12.283Z,8.70
2018-11-21T09:38:16.084Z,9.00
2018-11-21T09:41:19.471Z,9.90
2018-11-21T09:44:22.949Z,9.70
2018-11-21T09:47:26.350Z,8.70
2018-11-21T09:50:31.029Z,10.40
2018-11-21T09:53:34.210Z,10.17
2018-11-21T09:56:37.905Z,8.30
2018-11-21T09:59:40.962Z,10.27
2018-11-21T10:03:16.799Z,8.53
2018-11-21T10:06:22.048Z,10.13
2018-11-21T10:09:36.446Z,9.83
2018-11-21T10:12:39.845Z,10.90
2018-11-21T10:15:42.993Z,8.40
2018-11-21T10:18:47.791Z,8.60
2018-11-21T10:21:51.161Z,8.47
2018-11-21T10:24:54.486Z,9.37
2018-11-21T10:27:57.862Z,8.57
2018-11-21T10:31:01.785Z,9.13
2018-11-21T10:34:05.150Z,8.67
2018-11-21T10:37:08.538Z,8.33
2018-11-21T10:40:12.038Z,9.67
2018-11-21T10:43:15.083Z,8.43
2018-11-21T10:46:18.426Z,10.17
2018-11-21T10:49:21.862Z,8.70
2018-11-21T10:52:26.553Z,9.17
2018-11-21T10:55:28.845Z,8.80
2018-11-21T10:58:31.933Z,8.07
2018-11-21T11:01:52.491Z,8.88
2018-11-21T11:05:15.974Z,8.93
2018-11-21T11:08:36.978Z,9.53
2018-11-21T11:12:05.353Z,10.10
2018-11-21T11:15:25.955Z,8.30
2018-11-21T11:18:52.514Z,8.87
2018-11-21T11:22:10.979Z,8.83
2018-11-21T11:25:36.337Z,9.23
2018-11-21T11:29:04.454Z,9.07
2018-11-21T11:32:20.058Z,8.57
2018-11-21T11:35:30.963Z,8.97
2018-11-21T11:38:53.185Z,8.73
2018-11-21T11:42:18.441Z,10.83
2018-11-21T11:45:39.640Z,8.93
2018-11-21T11:49:20.162Z,9.27
2018-11-21T11:52:41.176Z,8.30
2018-11-21T11:56:01.421Z,9.67
2018-11-21T11:59:27.382Z,8.30
2018-11-21T12:02:58.526Z,8.80
2018-11-21T12:06:26.695Z,7.43
2018-11-21T12:09:47.629Z,9.50
2018-11-21T12:13:28.819Z,9.80
2018-11-21T12:16:50.346Z,9.60
2018-11-21T12:20:19.999Z,9.93
2018-11-21T12:23:57.558Z,9.47
2018-11-21T12:27:18.973Z,9.53
2018-11-21T12:30:34.200Z,9.70
2018-11-21T12:33:55.431Z,10.60
2018-11-21T12:37:16.937Z,9.60
2018-11-21T12:40:38.254Z,9.77
2018-11-21T12:44:06.222Z,11.33
2018-11-21T12:47:27.704Z,9.67
2018-11-21T12:50:48.666Z,12.27
2018-11-21T12:54:09.902Z,8.90
2018-11-21T12:57:31.817Z,8.70
2018-11-21T13:00:52.758Z,9.53
2018-11-21T13:04:18.377Z,9.90
2018-11-21T13:07:41.154Z,10.83
2018-11-21T13:10:56.532Z,11.47
2018-11-21T13:14:17.743Z,11.40
2018-11-21T13:17:40.185Z,10.47
2018-11-21T13:20:53.077Z,10.70
2018-11-21T13:24:12.527Z,14.93
2018-11-21T13:27:29.288Z,12.17
2018-11-21T13:30:41.050Z,12.63
2018-11-21T13:34:03.621Z,9.73
2018-11-21T13:37:34.738Z,9.60
2018-11-21T13:41:13.341Z,9.27
2018-11-21T13:44:35.850Z,10.33
2018-11-21T13:47:58.959Z,13.07
2018-11-21T13:51:19.973Z,12.37
2018-11-21T13:54:40.975Z,18.27
2018-11-21T13:57:44.420Z,11.33
2018-11-21T14:00:47.505Z,15.03
2018-11-21T14:03:51.315Z,21.03
2018-11-21T14:06:54.983Z,16.50
2018-11-21T14:09:58.125Z,15.83
2018-11-21T14:13:01.349Z,11.05
2018-11-21T14:16:04.454Z,15.67
2018-11-21T14:19:07.890Z,11.37
2018-11-21T14:22:11.061Z,17.13
2018-11-21T14:25:14.475Z,13.70
2018-11-21T14:28:17.574Z,10.47
2018-11-21T14:31:20.830Z,14.97
2018-11-21T14:34:24.304Z,18.13
2018-11-21T14:37:27.386Z,16.00
2018-11-21T14:40:30.834Z,21.03
2018-11-21T14:43:34.360Z,16.63
2018-11-21T14:46:38.011Z,17.10
2018-11-21T14:49:43.177Z,22.43
2018-11-21T14:52:46.316Z,27.07
2018-11-21T14:55:49.814Z,17.80
2018-11-21T14:58:53.844Z,24.20
2018-11-21T15:01:57.267Z,21.33
2018-11-21T15:05:00.471Z,16.77
2018-11-21T15:08:04.090Z,22.57
2018-11-21T15:11:07.183Z,17.27
2018-11-21T15:14:11.678Z,20.80
2018-11-21T15:17:15.854Z,17.10
2018-11-21T15:20:21.691Z,17.93
2018-11-21T15:23:24.855Z,16.87
2018-11-21T15:26:31.625Z,15.40
2018-11-21T15:29:38.878Z,10.93
2018-11-21T15:32:42.352Z,13.90
2018-11-21T15:35:45.540Z,14.13
2018-11-21T15:38:48.712Z,13.60
2018-11-21T15:41:52.057Z,18.20
2018-11-21T15:44:55.509Z,17.10
2018-11-21T15:48:00.355Z,14.73
2018-11-21T15:51:03.837Z,16.30
2018-11-21T15:54:07.009Z,13.00
2018-11-21T15:57:10.168Z,16.73
2018-11-21T16:00:15.064Z,11.63
2018-11-21T16:03:18.682Z,19.80
2018-11-21T16:06:22.005Z,18.63
2018-11-21T16:09:25.221Z,12.17
2018-11-21T16:12:28.557Z,17.27
2018-11-21T16:15:35.689Z,18.63
2018-11-21T16:18:37.226Z,15.27
2018-11-21T16:21:40.759Z,12.03
2018-11-21T16:24:43.971Z,15.90
2018-11-21T16:27:47.319Z,19.97
2018-11-21T16:30:50.458Z,21.47
2018-11-21T16:33:53.937Z,14.53
2018-11-21T16:36:57.386Z,15.93
2018-11-21T16:40:00.878Z,18.30
2018-11-21T16:43:04.376Z,19.17
2018-11-21T16:46:08.521Z,19.17
2018-11-21T16:49:12.010Z,16.13
2018-11-21T16:52:15.218Z,16.60
2018-11-21T16:55:19.962Z,16.93
2018-11-21T16:58:23.164Z,16.73
2018-11-21T17:01:26.396Z,18.43
2018-11-21T17:04:32.688Z,16.37
2018-11-21T17:07:36.058Z,13.47
2018-11-21T17:10:39.650Z,18.73
2018-11-21T17:13:43.012Z,20.47
2018-11-21T17:16:46.292Z,20.20
2018-11-21T17:19:49.828Z,12.70
2018-11-21T17:22:54.501Z,16.00
2018-11-21T17:25:57.737Z,16.27
2018-11-21T17:29:00.996Z,18.83
2018-11-21T17:32:04.682Z,18.13
2018-11-21T17:35:09.167Z,14.40
2018-11-21T17:38:12.464Z,14.63
